Latest Weather Observations for Smithton

IDT60801

Issued at 1:01 pm EST Monday 25 May 2015 (issued every 30 minutes, with the page automatically refreshed every 10 minutes)

About weather observations | Map of weather stations | Latest weather observations for TAS | Other Formats
Station Details ID: 091292 Name: SMITHTON AERODROME Lat: -40.83 Lon: 145.08 Height: 7.5 m
Data from the previous 72 hours. | See also: Recent months at Smithton
Date/Time
EST
Temp
°C
App
Temp
°C
Dew
Point
Rel
Hum
%
Delta-T
°C
Wind Press
QNH
hPa
Press
MSL
hPa
Rain
since 9 am
mm
Dir
 
Spd
km/h
Gust
km/h
Spd
kts
Gust
kts
25/01:00pm 14.5 12.2 11.6 83 1.5 NW 15 20 8 11 1028.2 - 0.0
25/12:30pm 13.7 13.4 12.6 93 0.6 NNW 6 7 3 4 1028.5 - 0.0
25/12:00pm 13.4 12.6 11.8 90 0.8 NNW 7 9 4 5 1028.8 1028.8 0.0
25/11:30am 13.9 12.8 11.8 87 1.1 NNW 9 13 5 7 1029.3 - 0.0
25/11:00am 13.1 12.0 11.8 92 0.7 NW 9 11 5 6 1029.6 - 0.0
25/10:30am 12.4 12.3 12.2 99 0.1 WSW 4 7 2 4 1029.8 - 0.0
25/10:00am 9.5 9.4 9.5 100 0.0 CALM 0 0 0 0 1029.7 - 0.0
25/09:30am 8.7 8.0 8.7 100 0.0 SSW 2 6 1 3 1029.7 - 0.0
25/09:00am 8.2 6.5 8.2 100 0.0 SSW 7 11 4 6 1029.7 1029.7 0.0
25/08:30am 7.4 6.8 7.4 100 0.0 CALM 0 0 0 0 1029.6 - 0.0
25/08:00am 6.8 5.3 6.8 100 0.0 NNW 4 9 2 5 1029.6 - 0.0
25/07:30am 6.6 4.7 6.5 99 0.0 NNW 6 7 3 4 1029.3 - 0.0
25/07:00am 8.0 5.8 7.9 99 0.0 WNW 9 19 5 10 1029.1 - 0.0
25/06:30am 7.8 6.9 7.8 100 0.0 SW 2 6 1 3 1029.1 - 0.0
25/06:00am 7.8 7.3 7.8 100 0.0 CALM 0 4 0 2 1029.1 1029.1 0.0
25/05:30am 7.7 7.1 7.6 99 0.0 CALM 0 0 0 0 1028.9 - 0.0
25/05:00am 8.1 7.6 8.0 99 0.0 CALM 0 2 0 1 1028.9 - 0.0
25/04:30am 8.2 6.6 8.1 99 0.0 SW 6 7 3 4 1028.9 - 0.0
25/04:00am 8.2 7.4 8.1 99 0.0 SW 2 7 1 4 1029.0 - 0.0
25/03:30am 8.1 7.6 8.0 99 0.0 CALM 0 0 0 0 1029.0 - 0.0
25/03:00am 8.2 6.6 8.1 99 0.0 WSW 6 11 3 6 1029.2 1029.2 0.0
25/02:30am 8.3 7.9 8.2 99 0.0 CALM 0 2 0 1 1029.6 - 0.0
25/02:00am 8.2 7.8 8.1 99 0.0 CALM 0 0 0 0 1029.6 - 0.0
25/01:30am 8.2 6.4 8.1 99 0.0 W 7 9 4 5 1029.5 - 0.0
25/01:00am 8.3 7.5 8.0 98 0.1 W 2 6 1 3 1029.8 - 0.0
25/12:30am 8.4 7.8 7.6 95 0.4 CALM 0 0 0 0 1029.9 - 0.0
25/12:00am 8.4 7.5 7.6 95 0.4 W 2 7 1 4 1030.1 1030.1 0.0
 
Date/Time
EST
Temp
°C
App
Temp
°C
Dew
Point
Rel
Hum
%
Delta-T
°C
Wind Press
QNH
hPa
Press
MSL
hPa
Rain
since 9 am
mm
Dir
 
Spd
km/h
Gust
km/h
Spd
kts
Gust
kts
24/11:30pm 8.6 6.9 7.5 93 0.5 W 6 7 3 4 1029.9 - 0.0
24/11:00pm 8.7 7.1 7.8 94 0.4 W 6 7 3 4 1029.9 - 0.0
24/10:30pm 8.9 8.4 7.7 92 0.6 CALM 0 0 0 0 1030.1 - 0.0
24/10:00pm 9.2 8.6 7.5 89 0.8 CALM 0 6 0 3 1030.2 - 0.0
24/09:30pm 9.2 7.5 7.5 89 0.8 WNW 6 13 3 7 1030.3 - 0.0
24/09:00pm 9.2 7.4 8.0 92 0.6 WNW 7 9 4 5 1030.3 1030.3 0.0
24/08:30pm 9.2 6.7 8.1 93 0.5 WNW 11 13 6 7 1030.1 - 0.0
24/08:00pm 8.7 6.9 7.8 94 0.4 NW 7 9 4 5 1030.1 - 0.0
24/07:30pm 8.8 6.8 7.3 90 0.7 NW 7 11 4 6 1030.0 - 0.0
24/07:00pm 8.4 6.9 6.9 90 0.7 W 4 9 2 5 1029.8 - 0.0
24/06:30pm 8.9 8.3 7.4 90 0.7 CALM 0 0 0 0 1029.8 - 0.0
24/06:00pm 8.9 7.2 7.4 90 0.7 WNW 6 7 3 4 1029.8 1029.8 0.0
24/05:30pm 8.9 6.5 7.0 88 0.9 WNW 9 11 5 6 1029.6 - 0.0
24/05:00pm 9.7 7.4 7.3 85 1.1 W 9 13 5 7 1029.6 - 0.0
24/04:30pm 9.3 5.7 6.7 84 1.2 W 15 17 8 9 1029.6 - 0.0
24/04:00pm 11.1 7.6 7.2 77 1.9 W 15 20 8 11 1029.4 - 0.0
24/03:30pm 11.7 8.4 8.2 79 1.7 W 15 17 8 9 1029.3 - 0.0
24/03:00pm 12.1 9.5 7.6 74 2.2 W 11 15 6 8 1029.1 1029.1 0.0
24/02:30pm 11.7 9.0 7.4 75 2.1 W 11 15 6 8 1029.2 - 0.0
24/02:00pm 11.7 10.1 7.8 77 1.9 W 6 9 3 5 1029.3 - 0.0
24/01:30pm 12.1 10.0 8.4 78 1.8 WSW 9 13 5 7 1029.6 - 0.0
24/01:00pm 11.8 8.8 7.5 75 2.1 WSW 13 17 7 9 1029.8 - 0.0
24/12:30pm 11.5 7.7 7.6 77 1.9 WSW 17 20 9 11 1030.0 - 0.0
24/12:00pm 10.6 8.9 8.4 86 1.1 SSW 7 11 4 6 1030.4 1030.4 0.0
24/11:30am 10.2 8.5 8.3 88 0.9 SSW 7 11 4 6 1030.7 - 0.0
24/11:00am 9.3 7.3 8.7 96 0.3 S 9 13 5 7 1031.0 - 0.0
24/10:30am 8.2 6.4 8.1 99 0.0 S 7 13 4 7 1031.1 - 0.0
24/10:00am 7.6 5.3 7.6 100 0.0 S 9 13 5 7 1031.1 - 0.0
24/09:30am 6.5 4.4 6.5 100 0.0 S 7 9 4 5 1031.1 - 0.0
24/09:00am 4.5 1.6 4.5 100 0.0 S 9 9 5 5 1031.0 1031.0 0.2
24/08:30am 2.6 1.0 2.6 100 0.0 CALM 0 0 0 0 1030.9 - 0.2
24/08:00am 2.7 -0.2 2.7 100 0.0 S 7 9 4 5 1030.6 - 0.2
24/07:30am 2.7 -0.2 2.7 100 0.0 SSW 7 11 4 6 1030.3 - 0.2
24/07:00am 4.0 0.6 4.0 100 0.0 SSW 11 13 6 7 1030.1 - 0.2
24/06:30am 5.6 2.5 5.6 100 0.0 SW 11 13 6 7 1030.0 - 0.2
24/06:00am 5.1 1.1 5.1 100 0.0 SSW 15 22 8 12 1029.9 1029.9 0.0
24/05:30am 4.9 1.7 4.9 100 0.0 S 11 13 6 7 1029.9 - 0.0
24/05:00am 4.2 0.8 4.2 100 0.0 SSW 11 15 6 8 1030.0 - 0.0
24/04:30am 2.2 -1.9 2.2 100 0.0 SSW 13 17 7 9 1029.8 - 0.0
24/04:00am 1.1 -2.4 1.1 100 0.0 WSW 9 13 5 7 1029.8 - 0.0
24/03:30am 0.0 -3.1 -0.1 99 0.0 W 6 11 3 6 1029.8 - 0.0
24/03:00am -0.2 -2.2 -0.3 99 0.0 CALM 0 0 0 0 1029.7 1029.7 0.0
24/02:30am -0.3 -3.1 -0.4 99 0.0 SW 4 6 2 3 1029.9 - 0.0
24/02:00am 1.1 -1.9 1.0 99 0.0 SW 6 9 3 5 1029.9 - 0.0
24/01:30am 2.5 -0.4 2.4 99 0.0 SW 7 9 4 5 1029.8 - 0.0
24/01:00am 2.8 0.1 2.7 99 0.0 SW 6 7 3 4 1030.1 - 0.0
24/12:30am 2.5 -0.2 2.4 99 0.0 SW 6 7 3 4 1030.3 - 0.0
24/12:00am 3.2 0.4 3.1 99 0.0 SW 7 9 4 5 1030.5 1030.5 0.0
 
Date/Time
EST
Temp
°C
App
Temp
°C
Dew
Point
Rel
Hum
%
Delta-T
°C
Wind Press
QNH
hPa
Press
MSL
hPa
Rain
since 9 am
mm
Dir
 
Spd
km/h
Gust
km/h
Spd
kts
Gust
kts
23/11:30pm 3.2 -1.1 3.1 99 0.0 WSW 15 17 8 9 1030.3 - 0.0
23/11:00pm 3.0 -1.0 2.9 99 0.0 WSW 13 15 7 8 1030.3 - 0.0
23/10:30pm 3.4 0.2 3.3 99 0.0 WSW 9 11 5 6 1030.5 - 0.0
23/10:00pm 3.3 0.1 3.2 99 0.0 WSW 9 11 5 6 1030.7 - 0.0
23/09:30pm 3.2 -0.8 3.1 99 0.0 WSW 13 15 7 8 1030.7 - 0.0
23/09:00pm 3.9 0.1 3.8 99 0.0 W 13 15 7 8 1030.7 1030.7 0.0
23/08:30pm 5.1 1.1 5.0 99 0.0 WSW 15 17 8 9 1030.6 - 0.0
23/08:00pm 5.7 1.8 5.4 98 0.1 WSW 15 17 8 9 1030.4 - 0.0
23/07:30pm 6.2 2.4 5.8 97 0.2 WSW 15 17 8 9 1030.3 - 0.0
23/07:00pm 6.2 2.7 5.3 94 0.4 SW 13 15 7 8 1030.2 - 0.0
23/06:30pm 7.5 4.2 6.4 93 0.5 SW 13 17 7 9 1030.0 - 0.0
23/06:00pm 8.5 4.3 7.4 93 0.5 SW 19 22 10 12 1029.8 1029.8 0.0
23/05:30pm 9.3 4.6 7.9 91 0.7 SW 22 28 12 15 1029.7 - 0.0
23/05:00pm 10.1 4.7 7.9 86 1.1 SW 26 35 14 19 1029.7 - 0.0
23/04:30pm 10.5 6.0 8.6 88 0.9 SW 22 28 12 15 1029.8 - 0.0
23/04:00pm 11.6 6.4 8.8 83 1.4 SW 26 35 14 19 1029.7 - 0.0
23/03:30pm 11.5 6.8 9.4 87 1.1 SW 24 32 13 17 1029.7 - 0.0
23/03:00pm 11.6 5.4 9.2 85 1.2 SW 32 39 17 21 1029.7 1029.7 0.0
23/02:30pm 12.5 7.0 9.1 80 1.7 SW 28 41 15 22 1029.5 - 0.0
23/02:00pm 12.6 6.8 9.4 81 1.6 WSW 30 44 16 24 1029.7 - 0.0
23/01:30pm 12.1 5.8 8.8 80 1.6 SW 32 41 17 22 1029.8 - 0.0
23/01:00pm 13.2 7.8 9.6 79 1.8 WSW 28 37 15 20 1030.0 - 0.0
23/12:30pm 12.4 6.4 8.5 77 1.9 SW 30 37 16 20 1030.2 - 0.0
23/12:00pm 12.5 6.4 8.2 75 2.1 SW 30 43 16 23 1030.5 1030.5 0.0
23/11:30am 11.9 5.2 7.2 73 2.3 SSW 32 43 17 23 1030.8 - 0.0
23/11:00am 12.1 6.8 8.4 78 1.8 SSW 26 35 14 19 1031.0 - 0.0
23/10:30am 11.8 6.0 8.1 78 1.8 SSW 28 35 15 19 1031.0 - 0.0
23/10:00am 11.1 5.3 7.8 80 1.6 SW 28 35 15 19 1031.2 - 0.0
23/09:30am 10.8 5.4 7.9 82 1.4 SW 26 37 14 20 1031.2 - 0.0
23/09:00am 10.3 5.8 8.4 88 0.9 SW 22 30 12 16 1031.3 1031.3 0.0
23/08:30am 9.6 5.6 8.4 92 0.6 SW 19 24 10 13 1031.0 - 0.0
23/08:00am 8.3 4.2 7.7 96 0.3 SW 19 24 10 13 1030.8 - 0.0
23/07:30am 8.1 4.0 7.7 97 0.2 SW 19 24 10 13 1030.4 - 0.0
23/07:00am 8.2 3.6 8.1 99 0.0 SW 22 32 12 17 1030.2 - 0.0
23/06:30am 8.0 3.3 7.9 99 0.0 SSW 22 30 12 16 1029.9 - 0.0
23/06:00am 8.3 3.3 8.2 99 0.0 SW 24 35 13 19 1029.7 1029.7 0.0
23/05:30am 8.4 4.4 8.3 99 0.0 SW 19 24 10 13 1029.7 - 0.0
23/05:00am 8.0 3.9 7.9 99 0.0 SW 19 26 10 14 1029.6 - 0.0
23/04:30am 8.3 4.0 8.0 98 0.1 SW 20 26 11 14 1029.4 - 0.0
23/04:00am 9.0 4.5 8.7 98 0.1 SW 22 28 12 15 1029.5 - 0.0
23/03:30am 8.5 4.5 8.1 97 0.2 SW 19 24 10 13 1029.6 - 0.0
23/03:00am 9.1 5.0 8.8 98 0.1 WSW 20 28 11 15 1029.7 1029.7 0.0
23/02:30am 9.1 6.0 9.0 99 0.0 WSW 15 20 8 11 1029.9 - 0.0
23/02:00am 9.1 5.3 9.0 99 0.0 SW 19 24 10 13 1030.0 - 0.0
23/01:30am 9.1 4.3 9.0 99 0.0 SW 24 32 13 17 1030.2 - 0.0
23/01:00am 9.0 5.0 8.9 99 0.0 SW 20 28 11 15 1030.1 - 0.0
23/12:30am 8.7 4.8 8.7 100 0.0 SSW 19 24 10 13 1030.4 - 0.0
23/12:00am 8.9 6.5 8.8 99 0.0 WSW 11 15 6 8 1030.4 1030.4 0.0
 
Date/Time
EST
Temp
°C
App
Temp
°C
Dew
Point
Rel
Hum
%
Delta-T
°C
Wind Press
QNH
hPa
Press
MSL
hPa
Rain
since 9 am
mm
Dir
 
Spd
km/h
Gust
km/h
Spd
kts
Gust
kts
22/11:30pm 9.1 6.8 9.0 99 0.0 SSW 11 13 6 7 1030.5 - 0.0
22/11:00pm 9.5 5.4 8.6 94 0.4 SW 20 30 11 16 1030.5 - 0.0
22/10:30pm 9.5 4.5 7.9 90 0.8 SW 24 30 13 16 1030.5 - 0.0
22/10:00pm 8.5 4.0 6.3 86 1.0 SW 19 24 10 13 1030.6 - 0.0
22/09:30pm 9.6 5.0 6.5 81 1.4 WSW 20 28 11 15 1030.6 - 0.0
22/09:00pm 9.3 4.8 6.0 80 1.5 WSW 19 22 10 12 1030.6 1030.6 0.0
22/08:30pm 9.7 5.0 5.9 77 1.7 SW 20 32 11 17 1030.6 - 0.0
22/08:00pm 9.5 4.9 5.7 77 1.7 SW 19 26 10 14 1030.7 - 0.0
22/07:30pm 9.6 4.8 5.8 77 1.7 SW 20 30 11 16 1030.8 - 0.0
22/07:00pm 9.2 5.0 5.9 80 1.5 SSW 17 20 9 11 1030.4 - 0.0
22/06:30pm 9.5 4.4 5.9 78 1.6 SSW 22 35 12 19 1030.2 - 0.0
22/06:00pm 9.3 4.5 5.5 77 1.7 SSW 20 28 11 15 1030.0 1030.0 0.0
22/05:30pm 8.9 4.0 5.3 78 1.6 SSW 20 28 11 15 1029.9 - 0.0
22/05:00pm 9.1 3.1 5.3 77 1.7 SSW 26 35 14 19 1029.7 - 0.0
22/04:30pm 9.9 3.2 5.7 75 1.9 SSW 30 39 16 21 1029.3 - 0.0
22/04:00pm 10.6 4.3 5.6 71 2.3 SSW 28 39 15 21 1029.3 - 0.0
22/03:30pm 11.0 3.3 5.5 69 2.5 SSW 35 48 19 26 1029.1 - 0.0
22/03:00pm 11.4 3.8 5.9 69 2.5 SSW 35 43 19 23 1028.8 1028.8 0.0
22/02:30pm 11.4 3.9 6.1 70 2.5 SSW 35 44 19 24 1028.7 - 0.0
22/02:00pm 11.7 4.5 5.8 67 2.7 SSW 33 44 18 24 1028.8 - 0.0
22/01:30pm 11.5 2.3 5.6 67 2.7 SSW 43 52 23 28 1028.8 - 0.0

Other Formats:

Comma delimited format used in spreadsheet applications
http://www.bom.gov.au/fwo/IDT60801/IDT60801.94953.axf

JavaScript Object Notation format (JSON) in row-major order
http://www.bom.gov.au/fwo/IDT60801/IDT60801.94953.json